createdAt,value
2019-03-01T00:00:41.567Z,76.30
2019-03-01T00:03:23.650Z,76.50
2019-03-01T00:06:05.515Z,76.70
2019-03-01T00:08:47.287Z,76.50
2019-03-01T00:11:29.487Z,76.30
2019-03-01T00:14:11.142Z,77.00
2019-03-01T00:16:53.384Z,79.00
2019-03-01T00:19:35.302Z,80.60
2019-03-01T00:22:17.714Z,81.90
2019-03-01T00:24:59.914Z,83.30
2019-03-01T00:27:41.995Z,83.00
2019-03-01T00:30:24.010Z,82.70
2019-03-01T00:33:05.905Z,83.30
2019-03-01T00:35:48.491Z,82.90
2019-03-01T00:38:30.622Z,83.20
2019-03-01T00:41:12.431Z,83.90
2019-03-01T00:43:54.426Z,84.60
2019-03-01T00:46:36.395Z,85.60
2019-03-01T00:49:18.650Z,86.00
2019-03-01T00:52:00.699Z,86.60
2019-03-01T00:54:42.467Z,87.80
2019-03-01T00:57:24.279Z,87.10
2019-03-01T01:00:06.062Z,87.10
2019-03-01T01:02:48.478Z,89.70
2019-03-01T01:05:30.889Z,88.80
2019-03-01T01:08:12.723Z,88.30
2019-03-01T01:10:54.453Z,87.70
2019-03-01T01:13:36.416Z,88.70
2019-03-01T01:16:18.140Z,89.80
2019-03-01T01:19:00.274Z,89.30
2019-03-01T01:21:42.019Z,90.40
2019-03-01T01:24:23.940Z,90.40
2019-03-01T01:27:05.859Z,90.80
2019-03-01T01:29:48.165Z,90.00
2019-03-01T01:32:30.555Z,89.90
2019-03-01T01:35:12.366Z,90.00
2019-03-01T01:37:54.078Z,90.80
2019-03-01T01:40:36.180Z,90.40
2019-03-01T01:43:17.907Z,90.10
2019-03-01T01:45:59.850Z,90.30
2019-03-01T01:48:41.638Z,90.40
2019-03-01T01:51:24.002Z,90.40
2019-03-01T01:54:05.743Z,90.60
2019-03-01T01:56:47.727Z,91.20
2019-03-01T01:59:30.006Z,91.20
2019-03-01T02:02:12.101Z,91.80
2019-03-01T02:04:53.875Z,91.90
2019-03-01T02:07:36.203Z,91.40
2019-03-01T02:10:17.990Z,90.90
2019-03-01T02:12:59.702Z,90.90
2019-03-01T02:15:41.908Z,90.80
2019-03-01T02:18:23.946Z,90.70
2019-03-01T02:21:04.314Z,91.20
2019-03-01T02:23:53.650Z,91.30
2019-03-01T02:26:35.430Z,91.20
2019-03-01T02:29:24.774Z,91.40
2019-03-01T02:32:08.242Z,91.00
2019-03-01T02:34:50.299Z,91.00
2019-03-01T02:37:32.670Z,91.20
2019-03-01T02:40:14.450Z,91.30
2019-03-01T02:42:56.488Z,91.60
2019-03-01T02:45:38.201Z,91.80
2019-03-01T02:48:20.471Z,92.30
2019-03-01T02:51:02.890Z,92.70
2019-03-01T02:53:44.578Z,92.60
2019-03-01T02:56:26.616Z,93.30
2019-03-01T02:59:08.824Z,93.10
2019-03-01T03:01:50.857Z,93.00
2019-03-01T03:04:33.091Z,93.40
2019-03-01T03:07:20.165Z,94.20
2019-03-01T03:10:02.126Z,94.90
2019-03-01T03:12:51.997Z,95.80
2019-03-01T03:15:38.587Z,96.20
2019-03-01T03:18:20.541Z,96.40
2019-03-01T03:21:02.286Z,96.80
2019-03-01T03:23:44.002Z,96.70
2019-03-01T03:26:26.188Z,96.70
2019-03-01T03:29:08.445Z,96.90
2019-03-01T03:31:50.539Z,97.10
2019-03-01T03:34:32.624Z,97.20
2019-03-01T03:37:14.722Z,97.00
2019-03-01T03:39:57.196Z,96.80
2019-03-01T03:42:37.762Z,97.70
2019-03-01T03:45:27.209Z,97.80
2019-03-01T03:48:11.035Z,98.20
2019-03-01T03:50:53.297Z,98.80
2019-03-01T03:53:35.107Z,98.80
2019-03-01T03:56:16.871Z,98.80
2019-03-01T03:58:58.704Z,99.40
2019-03-01T04:01:40.970Z,99.50
2019-03-01T04:04:22.973Z,98.80
2019-03-01T04:07:05.547Z,98.30
2019-03-01T04:09:47.234Z,98.30
2019-03-01T04:12:29.392Z,98.40
2019-03-01T04:15:11.703Z,98.50
2019-03-01T04:17:53.710Z,98.70
2019-03-01T04:20:36.315Z,98.90
2019-03-01T04:23:18.394Z,99.20
2019-03-01T04:26:00.471Z,99.10
2019-03-01T04:28:42.567Z,99.10
2019-03-01T04:31:24.887Z,99.50
2019-03-01T04:34:06.997Z,99.70
2019-03-01T04:36:48.835Z,99.90
2019-03-01T04:39:30.750Z,99.90
2019-03-01T04:42:12.538Z,99.90
2019-03-01T04:44:54.354Z,99.90
2019-03-01T04:47:36.358Z,99.90
2019-03-01T04:50:17.970Z,99.90
2019-03-01T04:52:58.434Z,99.90
2019-03-01T04:55:47.829Z,99.90
2019-03-01T04:58:19.666Z,99.90
2019-03-01T05:01:10.550Z,99.90
2019-03-01T05:03:54.206Z,99.90
2019-03-01T05:06:36.523Z,99.60
2019-03-01T05:09:18.346Z,96.90
2019-03-01T05:12:00.425Z,93.20
2019-03-01T05:14:30.788Z,90.60
2019-03-01T05:17:21.846Z,83.80
2019-03-01T05:20:05.330Z,78.90
2019-03-01T05:22:47.297Z,70.10
2019-03-01T05:25:29.438Z,69.90
2019-03-01T05:28:11.234Z,69.80
2019-03-01T05:33:49.978Z,67.90
2019-03-01T05:36:51.410Z,67.60
2019-03-01T05:39:33.490Z,65.70
2019-03-01T05:42:15.510Z,62.40
2019-03-01T05:44:57.742Z,62.50
2019-03-01T05:47:40.236Z,61.80
2019-03-01T05:50:21.962Z,59.20
2019-03-01T05:53:04.153Z,58.80
2019-03-01T05:55:46.606Z,58.10
2019-03-01T05:58:28.762Z,57.90
2019-03-01T06:01:11.047Z,58.20
2019-03-01T06:03:52.738Z,58.40
2019-03-01T06:06:35.055Z,58.40
2019-03-01T06:09:18.010Z,58.10
2019-03-01T06:12:00.246Z,58.20
2019-03-01T06:14:42.690Z,57.80
2019-03-01T06:17:24.480Z,57.20
2019-03-01T06:20:06.419Z,57.20
2019-03-01T06:22:48.188Z,57.20
2019-03-01T06:25:30.079Z,58.50
2019-03-01T06:28:12.186Z,61.00
2019-03-01T06:30:53.910Z,63.60
2019-03-01T06:33:35.613Z,65.60
2019-03-01T06:36:19.404Z,68.90
2019-03-01T06:39:19.717Z,68.70
2019-03-01T06:42:01.849Z,71.30
2019-03-01T06:44:43.787Z,73.10
2019-03-01T06:47:25.633Z,74.70
2019-03-01T06:50:15.078Z,77.00
2019-03-01T06:52:58.730Z,78.20
2019-03-01T06:55:43.394Z,75.20
2019-03-01T06:58:34.122Z,72.40
2019-03-01T07:04:21.358Z,66.80
2019-03-01T07:07:03.653Z,65.60
2019-03-01T07:09:45.515Z,67.30
2019-03-01T07:12:27.428Z,68.00
2019-03-01T07:15:09.264Z,69.20
2019-03-01T07:17:51.187Z,69.40
2019-03-01T07:20:33.434Z,70.50
2019-03-01T07:23:15.282Z,68.80
2019-03-01T07:25:57.368Z,68.20
2019-03-01T07:28:39.362Z,65.00
2019-03-01T07:31:21.689Z,61.30
2019-03-01T07:34:03.522Z,61.40
2019-03-01T07:36:45.816Z,61.60
2019-03-01T07:39:27.868Z,62.40
2019-03-01T07:42:10.178Z,62.90
2019-03-01T07:44:52.774Z,63.60
2019-03-01T07:47:34.786Z,59.70
2019-03-01T07:50:16.591Z,55.50
2019-03-01T07:53:00.204Z,53.90
2019-03-01T07:55:42.266Z,53.90
2019-03-01T07:58:25.602Z,52.90
2019-03-01T08:01:08.268Z,51.30
2019-03-01T08:03:52.991Z,51.30
2019-03-01T08:06:33.258Z,50.70
2019-03-01T08:09:15.362Z,49.90
2019-03-01T08:11:57.095Z,52.10
2019-03-01T08:14:38.850Z,53.80
2019-03-01T08:17:20.514Z,55.10
2019-03-01T08:20:02.385Z,56.90
2019-03-01T08:22:48.556Z,57.40
2019-03-01T08:25:28.795Z,55.90
2019-03-01T08:28:10.493Z,53.70
2019-03-01T08:30:52.463Z,52.50
2019-03-01T08:33:34.510Z,50.30
2019-03-01T08:36:16.550Z,48.90
2019-03-01T08:39:01.002Z,46.50
2019-03-01T08:41:41.079Z,45.30
2019-03-01T08:44:30.462Z,45.10
2019-03-01T08:47:05.995Z,43.50
2019-03-01T08:49:56.874Z,44.30
2019-03-01T08:52:41.103Z,44.90
2019-03-01T08:55:23.022Z,43.50
2019-03-01T08:58:07.032Z,43.80
2019-03-01T09:00:48.359Z,42.30
2019-03-01T09:03:30.195Z,42.10
2019-03-01T09:06:12.233Z,42.30
2019-03-01T09:08:54.324Z,42.70
2019-03-01T09:11:36.326Z,42.30
2019-03-01T09:14:18.410Z,42.70
2019-03-01T09:17:00.810Z,42.30
2019-03-01T09:19:42.978Z,42.30
2019-03-01T09:22:28.070Z,41.90
2019-03-01T09:25:08.876Z,41.40
2019-03-01T09:27:51.062Z,41.20
2019-03-01T09:30:33.144Z,40.90
2019-03-01T09:33:17.161Z,40.70
2019-03-01T09:36:23.770Z,41.30
2019-03-01T09:39:06.842Z,40.60
2019-03-01T09:42:03.063Z,41.10
2019-03-01T09:44:45.410Z,40.30
2019-03-01T09:47:27.287Z,41.00
2019-03-01T09:50:09.489Z,40.20
2019-03-01T09:52:51.566Z,39.60
2019-03-01T09:55:34.758Z,40.40
2019-03-01T09:58:17.186Z,39.50
2019-03-01T10:00:59.358Z,40.40
2019-03-01T10:03:41.237Z,39.20
2019-03-01T10:06:23.090Z,40.00
2019-03-01T10:09:05.270Z,39.70
2019-03-01T10:11:47.291Z,40.00
2019-03-01T10:14:29.527Z,40.00
2019-03-01T10:17:11.714Z,40.30
2019-03-01T10:19:53.382Z,38.90
2019-03-01T10:22:35.075Z,38.10
2019-03-01T10:25:17.395Z,38.60
2019-03-01T10:27:59.683Z,38.80
2019-03-01T10:30:41.574Z,38.50
2019-03-01T10:33:23.234Z,38.60
2019-03-01T10:36:05.610Z,38.00
2019-03-01T10:38:47.362Z,38.30
2019-03-01T10:41:29.421Z,37.90
2019-03-01T10:44:11.382Z,38.70
2019-03-01T10:46:53.189Z,38.60
2019-03-01T10:49:35.370Z,38.90
2019-03-01T10:52:18.595Z,39.60
2019-03-01T10:55:00.316Z,40.00
2019-03-01T10:57:42.658Z,39.80
2019-03-01T11:00:24.653Z,39.60
2019-03-01T11:03:06.790Z,39.10
2019-03-01T11:05:48.866Z,39.50
2019-03-01T11:08:31.234Z,38.00
2019-03-01T11:11:15.841Z,37.60
2019-03-01T11:13:58.130Z,37.90
2019-03-01T11:16:40.382Z,38.50
2019-03-01T11:19:22.400Z,38.90
2019-03-01T11:22:04.671Z,38.40
2019-03-01T11:24:46.402Z,38.20
2019-03-01T11:27:28.567Z,37.90
2019-03-01T11:30:10.594Z,37.80
2019-03-01T11:32:53.076Z,38.10
2019-03-01T11:35:34.838Z,38.10
2019-03-01T11:38:16.915Z,37.90
2019-03-01T11:40:58.627Z,37.90
2019-03-01T11:43:40.912Z,38.30
2019-03-01T11:46:23.010Z,39.00
2019-03-01T11:49:05.502Z,40.00
2019-03-01T11:51:47.262Z,41.20
2019-03-01T11:54:27.806Z,42.90
2019-03-01T11:57:17.242Z,43.50
2019-03-01T12:00:01.162Z,44.20
2019-03-01T12:02:43.482Z,44.40
2019-03-01T12:05:25.214Z,44.80
2019-03-01T12:08:07.040Z,45.70
2019-03-01T12:10:48.782Z,45.90
2019-03-01T12:13:30.703Z,45.80
2019-03-01T12:16:13.173Z,45.80
2019-03-01T12:18:54.761Z,45.90
2019-03-01T12:21:36.862Z,46.00
2019-03-01T12:24:18.916Z,46.00
2019-03-01T12:27:00.640Z,46.00
2019-03-01T12:29:42.671Z,46.50
2019-03-01T12:32:24.786Z,46.80
2019-03-01T12:35:07.290Z,47.40
2019-03-01T12:37:49.248Z,47.30
2019-03-01T12:40:31.023Z,47.00
2019-03-01T12:43:13.138Z,47.50
2019-03-01T12:45:54.998Z,47.40
2019-03-01T12:48:36.748Z,47.80
2019-03-01T12:51:18.694Z,47.50
2019-03-01T12:54:01.144Z,47.80
2019-03-01T12:56:42.998Z,48.10
2019-03-01T12:59:24.910Z,48.60
2019-03-01T13:02:06.941Z,48.70
2019-03-01T13:04:49.917Z,49.00
2019-03-01T13:07:32.898Z,49.20
2019-03-01T13:10:14.634Z,49.30
2019-03-01T13:12:58.799Z,49.30
2019-03-01T13:15:40.310Z,49.60
2019-03-01T13:18:22.123Z,49.00
2019-03-01T13:21:04.132Z,48.90
2019-03-01T13:23:46.255Z,49.00
2019-03-01T13:26:28.066Z,49.60
2019-03-01T13:29:10.451Z,49.80
2019-03-01T13:31:52.678Z,50.00
2019-03-01T13:34:34.606Z,49.70
2019-03-01T13:37:20.177Z,48.10
2019-03-01T13:40:00.271Z,47.50
2019-03-01T13:42:42.050Z,47.70
2019-03-01T13:45:24.067Z,47.30
2019-03-01T13:48:05.998Z,46.20
2019-03-01T13:50:48.035Z,46.70
2019-03-01T13:53:33.160Z,47.30
2019-03-01T13:56:13.990Z,47.80
2019-03-01T13:58:56.278Z,48.40
2019-03-01T14:01:38.158Z,48.20
2019-03-01T14:04:20.086Z,47.00
2019-03-01T14:07:01.858Z,47.60
2019-03-01T14:09:43.991Z,47.90
2019-03-01T14:12:26.566Z,48.10
2019-03-01T14:15:08.988Z,50.30
2019-03-01T14:17:50.706Z,49.60
2019-03-01T14:20:32.911Z,48.50
2019-03-01T14:23:14.789Z,48.50
2019-03-01T14:25:57.397Z,48.50
2019-03-01T14:28:41.213Z,48.20
2019-03-01T14:31:23.574Z,48.60
2019-03-01T14:34:08.246Z,48.50
2019-03-01T14:36:48.934Z,48.90
2019-03-01T14:39:30.689Z,49.20
2019-03-01T14:42:12.526Z,49.30
2019-03-01T14:44:54.714Z,50.10
2019-03-01T14:47:36.483Z,49.30
2019-03-01T14:50:18.547Z,49.50
2019-03-01T14:53:00.617Z,51.00
2019-03-01T14:55:42.522Z,52.30
2019-03-01T14:58:24.639Z,52.70
2019-03-01T15:01:06.573Z,52.30
2019-03-01T15:03:49.899Z,53.30
2019-03-01T15:06:32.162Z,53.90
2019-03-01T15:09:16.892Z,54.10
2019-03-01T15:11:57.784Z,54.40
2019-03-01T15:14:39.482Z,54.00
2019-03-01T15:17:22.694Z,53.80
2019-03-01T15:20:04.825Z,53.30
2019-03-01T15:22:48.705Z,53.80
2019-03-01T15:25:30.262Z,52.30
2019-03-01T15:28:13.242Z,51.90
2019-03-01T15:30:57.166Z,50.90
2019-03-01T15:33:38.742Z,50.30
2019-03-01T15:36:20.673Z,50.30
2019-03-01T15:39:04.611Z,50.40
2019-03-01T15:41:46.977Z,49.90
2019-03-01T15:44:28.954Z,50.50
2019-03-01T15:47:11.106Z,50.00
2019-03-01T15:49:52.893Z,49.60
2019-03-01T15:52:34.825Z,50.00
2019-03-01T15:55:16.858Z,49.50
2019-03-01T15:57:59.098Z,47.90
2019-03-01T16:00:41.186Z,47.90
2019-03-01T16:03:23.354Z,48.40
2019-03-01T16:06:05.606Z,48.50
2019-03-01T16:08:48.972Z,48.60
2019-03-01T16:11:31.098Z,49.20
2019-03-01T16:14:13.599Z,49.70
2019-03-01T16:16:55.588Z,49.80
2019-03-01T16:19:37.288Z,50.30
2019-03-01T16:22:19.678Z,50.30
2019-03-01T16:25:00.237Z,50.70
2019-03-01T16:27:50.812Z,51.20
2019-03-01T16:30:39.002Z,51.20
2019-03-01T16:33:22.428Z,51.90
2019-03-01T16:36:08.746Z,52.40
2019-03-01T16:38:51.014Z,52.60
2019-03-01T16:41:35.162Z,53.40
2019-03-01T16:44:16.646Z,54.40
2019-03-01T16:46:58.286Z,54.50
2019-03-01T16:49:40.524Z,54.60
2019-03-01T16:52:22.366Z,55.20
2019-03-01T16:55:04.609Z,55.90
2019-03-01T16:57:48.585Z,56.70
2019-03-01T17:00:30.560Z,57.80
2019-03-01T17:03:16.758Z,58.80
2019-03-01T17:05:56.331Z,60.00
2019-03-01T17:08:39.662Z,61.50
2019-03-01T17:11:22.576Z,62.80
2019-03-01T17:14:04.712Z,63.90
2019-03-01T17:16:48.786Z,64.90
2019-03-01T17:19:30.686Z,65.90
2019-03-01T17:22:12.967Z,66.90
2019-03-01T17:24:54.983Z,67.80
2019-03-01T17:27:36.800Z,68.70
2019-03-01T17:30:20.910Z,70.60
2019-03-01T17:33:03.428Z,71.90
2019-03-01T17:35:45.298Z,73.50
2019-03-01T17:38:27.519Z,75.20
2019-03-01T17:41:10.778Z,77.70
2019-03-01T17:43:53.713Z,79.80
2019-03-01T17:46:35.701Z,81.50
2019-03-01T17:49:17.495Z,83.20
2019-03-01T17:51:59.911Z,84.50
2019-03-01T17:54:41.816Z,85.70
2019-03-01T17:57:23.745Z,86.60
2019-03-01T18:00:05.814Z,86.80
2019-03-01T18:02:48.619Z,88.20
2019-03-01T18:05:31.031Z,88.70
2019-03-01T18:08:13.989Z,89.60
2019-03-01T18:10:57.622Z,96.30
2019-03-01T18:13:39.827Z,92.10
2019-03-01T18:16:24.906Z,90.80
2019-03-01T18:19:06.071Z,90.70
2019-03-01T18:21:49.860Z,90.70
2019-03-01T18:24:32.141Z,90.90
2019-03-01T18:27:18.009Z,90.70
2019-03-01T18:29:57.344Z,91.20
2019-03-01T18:32:41.789Z,91.30
2019-03-01T18:35:22.758Z,92.30
2019-03-01T18:38:04.867Z,92.60
2019-03-01T18:40:48.502Z,93.00
2019-03-01T18:43:33.271Z,93.80
2019-03-01T18:46:19.197Z,93.40
2019-03-01T18:48:59.296Z,93.40
2019-03-01T18:51:43.280Z,93.90
2019-03-01T18:54:25.986Z,94.40
2019-03-01T18:57:08.114Z,95.00
2019-03-01T18:59:51.225Z,95.90
2019-03-01T19:02:33.338Z,96.60
2019-03-01T19:05:15.653Z,97.50
2019-03-01T19:08:00.903Z,98.70
2019-03-01T19:10:41.534Z,99.60
2019-03-01T19:13:25.670Z,99.00
2019-03-01T19:16:07.715Z,99.20
2019-03-01T19:18:51.216Z,99.90
2019-03-01T19:21:33.368Z,99.90
2019-03-01T19:24:15.342Z,99.90
2019-03-01T19:26:58.002Z,99.90
2019-03-01T19:29:40.399Z,99.90
2019-03-01T19:32:23.632Z,99.90
2019-03-01T19:35:07.242Z,99.90
2019-03-01T19:37:50.795Z,99.90
2019-03-01T19:40:32.599Z,99.90
2019-03-01T19:43:15.206Z,99.90
2019-03-01T19:45:57.183Z,99.90
2019-03-01T19:48:39.300Z,99.90
2019-03-01T19:51:21.646Z,99.90
2019-03-01T19:54:03.692Z,99.90
2019-03-01T19:56:46.086Z,99.90
2019-03-01T19:59:27.891Z,99.90
2019-03-01T20:02:10.410Z,99.90
2019-03-01T20:04:52.622Z,99.90
2019-03-01T20:07:36.230Z,99.90
2019-03-01T20:10:18.659Z,99.90
2019-03-01T20:13:00.964Z,99.90
2019-03-01T20:15:46.165Z,99.90
2019-03-01T20:18:27.405Z,99.90
2019-03-01T20:21:10.568Z,99.90
2019-03-01T20:23:52.676Z,99.90
2019-03-01T20:26:34.581Z,99.90
2019-03-01T20:29:16.450Z,99.90
2019-03-01T20:31:59.365Z,99.90
2019-03-01T20:34:41.555Z,99.90
2019-03-01T20:37:24.738Z,99.90
2019-03-01T20:40:13.265Z,99.90
2019-03-01T20:43:01.337Z,99.90
2019-03-01T20:45:43.135Z,99.90
2019-03-01T20:48:25.638Z,99.90
2019-03-01T20:51:08.151Z,99.90
2019-03-01T20:53:51.184Z,99.90
2019-03-01T20:56:33.199Z,99.90
2019-03-01T20:59:15.388Z,99.90
2019-03-01T21:01:56.650Z,99.90
2019-03-01T21:04:53.273Z,99.90
2019-03-01T21:10:24.625Z,99.90
2019-03-01T21:13:15.410Z,99.90
2019-03-01T21:15:47.311Z,99.90
2019-03-01T21:18:39.458Z,99.90
2019-03-01T21:21:25.618Z,99.90
2019-03-01T21:24:06.472Z,99.90
2019-03-01T21:26:51.207Z,99.90
2019-03-01T21:29:32.242Z,99.90
2019-03-01T21:32:14.672Z,99.90
2019-03-01T21:34:56.958Z,99.90
2019-03-01T21:37:39.400Z,99.90
2019-03-01T21:40:21.917Z,99.90
2019-03-01T21:43:03.775Z,99.90
2019-03-01T21:45:45.526Z,99.90
2019-03-01T21:48:27.575Z,99.90
2019-03-01T21:51:09.426Z,99.90
2019-03-01T21:53:51.428Z,99.90
2019-03-01T21:56:33.432Z,99.90
2019-03-01T21:59:17.252Z,99.90
2019-03-01T22:01:59.042Z,99.90
2019-03-01T22:04:40.782Z,99.90
2019-03-01T22:07:22.626Z,99.90
2019-03-01T22:10:05.338Z,99.90
2019-03-01T22:12:47.214Z,99.90
2019-03-01T22:15:29.121Z,99.90
2019-03-01T22:18:10.990Z,99.90
2019-03-01T22:20:52.622Z,99.90
2019-03-01T22:23:34.528Z,99.90
2019-03-01T22:26:16.846Z,99.90
2019-03-01T22:28:58.502Z,99.90
2019-03-01T22:31:40.311Z,99.90
2019-03-01T22:34:22.030Z,99.90
2019-03-01T22:37:03.670Z,99.90
2019-03-01T22:39:48.391Z,99.90
2019-03-01T22:42:29.276Z,99.90
2019-03-01T22:45:13.628Z,99.90
2019-03-01T22:47:55.287Z,99.90
2019-03-01T22:50:39.473Z,99.90
2019-03-01T22:53:20.822Z,99.90
2019-03-01T22:56:02.804Z,99.90
2019-03-01T22:58:44.636Z,99.90
2019-03-01T23:01:32.794Z,99.90
2019-03-01T23:04:21.454Z,99.90
2019-03-01T23:07:03.304Z,99.90
2019-03-01T23:10:04.919Z,99.90
2019-03-01T23:12:45.438Z,99.90
2019-03-01T23:15:34.773Z,99.90
2019-03-01T23:18:18.526Z,99.90
2019-03-01T23:21:01.018Z,99.90
2019-03-01T23:23:44.431Z,99.90
2019-03-01T23:26:26.559Z,99.90
2019-03-01T23:29:08.702Z,99.90
2019-03-01T23:31:50.389Z,99.90
2019-03-01T23:34:32.505Z,99.90
2019-03-01T23:37:14.233Z,99.90
2019-03-01T23:39:57.094Z,99.90
2019-03-01T23:42:40.130Z,99.90
2019-03-01T23:45:21.934Z,99.90
2019-03-01T23:48:03.998Z,99.90
2019-03-01T23:50:45.652Z,99.90
2019-03-01T23:53:30.904Z,99.90
2019-03-01T23:56:13.793Z,99.90
2019-03-01T23:58:55.886Z,99.90
